sensor_id;sensor_type;location;lat;lon;timestamp;temperature;humidity
3998;DHT22;61314;53.444;9.902;2022-09-09T00:01:43;13.70;99.90
3998;DHT22;61314;53.444;9.902;2022-09-09T00:07:22;13.80;99.90
3998;DHT22;61314;53.444;9.902;2022-09-09T00:10:19;13.80;99.90
3998;DHT22;61314;53.444;9.902;2022-09-09T00:12:53;13.80;99.90
3998;DHT22;61314;53.444;9.902;2022-09-09T00:15:41;13.80;99.90
3998;DHT22;61314;53.444;9.902;2022-09-09T00:18:26;13.80;99.90
3998;DHT22;61314;53.444;9.902;2022-09-09T00:21:03;13.90;99.90
3998;DHT22;61314;53.444;9.902;2022-09-09T00:23:35;13.90;99.90
3998;DHT22;61314;53.444;9.902;2022-09-09T00:26:29;13.90;99.90
3998;DHT22;61314;53.444;9.902;2022-09-09T00:29:14;14.00;99.90
3998;DHT22;61314;53.444;9.902;2022-09-09T00:31:44;13.90;99.90
3998;DHT22;61314;53.444;9.902;2022-09-09T00:34:19;13.90;99.90
3998;DHT22;61314;53.444;9.902;2022-09-09T00:36:48;13.90;99.90
3998;DHT22;61314;53.444;9.902;2022-09-09T00:39:28;13.90;99.90
3998;DHT22;61314;53.444;9.902;2022-09-09T00:42:36;14.00;99.90
3998;DHT22;61314;53.444;9.902;2022-09-09T00:45:37;14.00;99.90
3998;DHT22;61314;53.444;9.902;2022-09-09T00:48:10;14.00;99.90
3998;DHT22;61314;53.444;9.902;2022-09-09T00:50:52;14.00;99.90
3998;DHT22;61314;53.444;9.902;2022-09-09T00:53:35;14.00;99.90
3998;DHT22;61314;53.444;9.902;2022-09-09T00:56:18;13.90;99.90
3998;DHT22;61314;53.444;9.902;2022-09-09T01:01:37;14.00;99.90
3998;DHT22;61314;53.444;9.902;2022-09-09T01:04:12;13.90;99.90
3998;DHT22;61314;53.444;9.902;2022-09-09T01:06:43;13.80;99.90
3998;DHT22;61314;53.444;9.902;2022-09-09T01:09:44;13.90;99.90
3998;DHT22;61314;53.444;9.902;2022-09-09T01:12:16;13.90;99.90
3998;DHT22;61314;53.444;9.902;2022-09-09T01:14:48;13.80;99.90
3998;DHT22;61314;53.444;9.902;2022-09-09T01:17:25;13.80;99.90
3998;DHT22;61314;53.444;9.902;2022-09-09T01:20:04;13.90;99.90
3998;DHT22;61314;53.444;9.902;2022-09-09T01:22:44;13.80;99.90
3998;DHT22;61314;53.444;9.902;2022-09-09T01:28:09;13.70;99.90
3998;DHT22;61314;53.444;9.902;2022-09-09T01:30:39;13.70;99.90
3998;DHT22;61314;53.444;9.902;2022-09-09T01:33:17;13.70;99.90
3998;DHT22;61314;53.444;9.902;2022-09-09T01:36:06;13.60;99.90
3998;DHT22;61314;53.444;9.902;2022-09-09T01:38:34;13.60;99.90
3998;DHT22;61314;53.444;9.902;2022-09-09T01:41:02;13.60;99.90
3998;DHT22;61314;53.444;9.902;2022-09-09T01:43:29;13.60;99.90
3998;DHT22;61314;53.444;9.902;2022-09-09T01:45:59;13.50;99.90
3998;DHT22;61314;53.444;9.902;2022-09-09T01:48:27;13.40;99.90
3998;DHT22;61314;53.444;9.902;2022-09-09T01:50:54;13.40;99.90
3998;DHT22;61314;53.444;9.902;2022-09-09T01:53:22;13.40;99.90
3998;DHT22;61314;53.444;9.902;2022-09-09T01:56:06;13.40;99.90
3998;DHT22;61314;53.444;9.902;2022-09-09T02:02:03;13.30;99.90
3998;DHT22;61314;53.444;9.902;2022-09-09T02:04:49;13.30;99.90
3998;DHT22;61314;53.444;9.902;2022-09-09T02:12:40;13.40;99.90
3998;DHT22;61314;53.444;9.902;2022-09-09T02:15:18;13.20;99.90
3998;DHT22;61314;53.444;9.902;2022-09-09T02:17:47;13.30;99.90
3998;DHT22;61314;53.444;9.902;2022-09-09T02:20:18;13.20;99.90
3998;DHT22;61314;53.444;9.902;2022-09-09T02:22:47;13.20;99.90
3998;DHT22;61314;53.444;9.902;2022-09-09T02:25:17;13.20;99.90
3998;DHT22;61314;53.444;9.902;2022-09-09T02:27:45;13.20;99.90
3998;DHT22;61314;53.444;9.902;2022-09-09T02:32:43;13.30;99.90
3998;DHT22;61314;53.444;9.902;2022-09-09T02:35:14;13.10;99.90
3998;DHT22;61314;53.444;9.902;2022-09-09T02:37:42;13.20;99.90
3998;DHT22;61314;53.444;9.902;2022-09-09T02:40:13;13.30;99.90
3998;DHT22;61314;53.444;9.902;2022-09-09T02:42:44;13.40;99.90
3998;DHT22;61314;53.444;9.902;2022-09-09T02:45:15;13.30;99.90
3998;DHT22;61314;53.444;9.902;2022-09-09T02:47:59;13.30;99.90
3998;DHT22;61314;53.444;9.902;2022-09-09T02:50:34;13.20;99.90
3998;DHT22;61314;53.444;9.902;2022-09-09T02:53:17;13.30;99.90
3998;DHT22;61314;53.444;9.902;2022-09-09T02:55:56;13.30;99.90
3998;DHT22;61314;53.444;9.902;2022-09-09T08:01:49;15.60;99.90
3998;DHT22;61314;53.444;9.902;2022-09-09T08:04:20;15.60;99.90
3998;DHT22;61314;53.444;9.902;2022-09-09T08:06:50;15.70;99.90
3998;DHT22;61314;53.444;9.902;2022-09-09T08:09:19;15.80;99.90
3998;DHT22;61314;53.444;9.902;2022-09-09T08:11:47;15.80;99.90
3998;DHT22;61314;53.444;9.902;2022-09-09T08:14:14;16.00;99.90
3998;DHT22;61314;53.444;9.902;2022-09-09T08:16:47;16.00;99.90
3998;DHT22;61314;53.444;9.902;2022-09-09T08:24:12;16.20;99.90
3998;DHT22;61314;53.444;9.902;2022-09-09T08:26:43;16.20;99.90
3998;DHT22;61314;53.444;9.902;2022-09-09T08:29:11;16.20;99.90
3998;DHT22;61314;53.444;9.902;2022-09-09T08:31:42;16.30;99.90
3998;DHT22;61314;53.444;9.902;2022-09-09T08:36:39;16.40;99.90
3998;DHT22;61314;53.444;9.902;2022-09-09T08:39:07;16.50;99.90
3998;DHT22;61314;53.444;9.902;2022-09-09T08:47:23;16.60;99.90
3998;DHT22;61314;53.444;9.902;2022-09-09T08:50:11;16.70;99.90
3998;DHT22;61314;53.444;9.902;2022-09-09T08:57:56;16.90;99.90
3998;DHT22;61314;53.444;9.902;2022-09-09T09:00:37;17.10;99.90
3998;DHT22;61314;53.444;9.902;2022-09-09T09:11:25;17.40;99.90
3998;DHT22;61314;53.444;9.902;2022-09-09T09:13:59;17.40;99.90
3998;DHT22;61314;53.444;9.902;2022-09-09T09:17:00;17.60;99.90
3998;DHT22;61314;53.444;9.902;2022-09-09T09:19:29;17.70;99.90
3998;DHT22;61314;53.444;9.902;2022-09-09T09:22:13;17.70;99.90
3998;DHT22;61314;53.444;9.902;2022-09-09T09:27:49;17.80;99.90
3998;DHT22;61314;53.444;9.902;2022-09-09T09:30:21;17.90;99.90
3998;DHT22;61314;53.444;9.902;2022-09-09T09:33:02;18.00;99.90
3998;DHT22;61314;53.444;9.902;2022-09-09T09:35:29;18.10;99.90
3998;DHT22;61314;53.444;9.902;2022-09-09T09:37:56;18.10;99.90
3998;DHT22;61314;53.444;9.902;2022-09-09T09:40:54;18.30;99.90
3998;DHT22;61314;53.444;9.902;2022-09-09T09:43:32;18.70;99.90
3998;DHT22;61314;53.444;9.902;2022-09-09T09:45:59;18.80;99.90
3998;DHT22;61314;53.444;9.902;2022-09-09T09:51:14;18.80;99.90
3998;DHT22;61314;53.444;9.902;2022-09-09T09:53:42;19.10;99.90
3998;DHT22;61314;53.444;9.902;2022-09-09T10:01:26;19.40;99.90
3998;DHT22;61314;53.444;9.902;2022-09-09T10:03:57;19.50;99.90
3998;DHT22;61314;53.444;9.902;2022-09-09T10:19:10;20.40;99.90
3998;DHT22;61314;53.444;9.902;2022-09-09T10:30:22;20.50;99.90
3998;DHT22;61314;53.444;9.902;2022-09-09T10:33:08;20.50;99.90
3998;DHT22;61314;53.444;9.902;2022-09-09T10:35:54;20.60;99.90
3998;DHT22;61314;53.444;9.902;2022-09-09T10:38:40;20.70;99.90
3998;DHT22;61314;53.444;9.902;2022-09-09T10:44:29;20.80;99.90
3998;DHT22;61314;53.444;9.902;2022-09-09T10:53:14;21.00;99.90
3998;DHT22;61314;53.444;9.902;2022-09-09T10:55:44;21.10;99.90
3998;DHT22;61314;53.444;9.902;2022-09-09T10:58:22;21.20;99.90
3998;DHT22;61314;53.444;9.902;2022-09-09T11:00:54;21.20;99.90
3998;DHT22;61314;53.444;9.902;2022-09-09T11:03:28;21.20;99.90
3998;DHT22;61314;53.444;9.902;2022-09-09T11:06:01;21.20;99.90
3998;DHT22;61314;53.444;9.902;2022-09-09T11:08:36;21.20;99.90
3998;DHT22;61314;53.444;9.902;2022-09-09T11:11:20;21.20;99.90
3998;DHT22;61314;53.444;9.902;2022-09-09T11:16:39;21.20;99.90
3998;DHT22;61314;53.444;9.902;2022-09-09T11:19:35;21.20;99.90
3998;DHT22;61314;53.444;9.902;2022-09-09T11:24:47;21.20;99.90
3998;DHT22;61314;53.444;9.902;2022-09-09T11:27:51;21.30;99.90
3998;DHT22;61314;53.444;9.902;2022-09-09T11:30:29;21.30;99.90
3998;DHT22;61314;53.444;9.902;2022-09-09T11:41:19;21.50;99.90
3998;DHT22;61314;53.444;9.902;2022-09-09T11:43:53;21.40;99.90
3998;DHT22;61314;53.444;9.902;2022-09-09T11:46:22;21.50;99.90
3998;DHT22;61314;53.444;9.902;2022-09-09T11:49:05;21.50;99.90
3998;DHT22;61314;53.444;9.902;2022-09-09T11:51:34;21.50;99.90
3998;DHT22;61314;53.444;9.902;2022-09-09T11:54:25;21.50;99.90
3998;DHT22;61314;53.444;9.902;2022-09-09T11:56:49;21.60;99.90
3998;DHT22;61314;53.444;9.902;2022-09-09T11:59:27;21.60;99.90
3998;DHT22;61314;53.444;9.902;2022-09-09T12:02:18;21.60;99.90
3998;DHT22;61314;53.444;9.902;2022-09-09T12:12:35;22.00;99.90
3998;DHT22;61314;53.444;9.902;2022-09-09T12:25:51;22.40;99.90
3998;DHT22;61314;53.444;9.902;2022-09-09T12:33:53;22.50;99.90
3998;DHT22;61314;53.444;9.902;2022-09-09T12:36:22;22.40;99.90
3998;DHT22;61314;53.444;9.902;2022-09-09T12:38:50;22.40;99.90
3998;DHT22;61314;53.444;9.902;2022-09-09T12:41:26;22.30;99.90
3998;DHT22;61314;53.444;9.902;2022-09-09T12:44:08;22.30;99.90
3998;DHT22;61314;53.444;9.902;2022-09-09T12:46:41;22.30;99.90
3998;DHT22;61314;53.444;9.902;2022-09-09T12:49:28;22.20;99.90
3998;DHT22;61314;53.444;9.902;2022-09-09T12:52:07;22.10;99.90
3998;DHT22;61314;53.444;9.902;2022-09-09T12:54:36;22.00;99.90
3998;DHT22;61314;53.444;9.902;2022-09-09T12:57:05;21.70;99.90
3998;DHT22;61314;53.444;9.902;2022-09-09T12:59:37;21.60;99.90
3998;DHT22;61314;53.444;9.902;2022-09-09T13:02:19;21.10;99.90
3998;DHT22;61314;53.444;9.902;2022-09-09T13:04:46;20.50;99.90
3998;DHT22;61314;53.444;9.902;2022-09-09T13:07:13;19.80;99.90
3998;DHT22;61314;53.444;9.902;2022-09-09T13:09:44;18.80;99.90
3998;DHT22;61314;53.444;9.902;2022-09-09T13:14:46;17.90;99.90
3998;DHT22;61314;53.444;9.902;2022-09-09T13:17:25;17.60;99.90
3998;DHT22;61314;53.444;9.902;2022-09-09T13:19:52;17.40;99.90
3998;DHT22;61314;53.444;9.902;2022-09-09T13:25:24;16.90;99.90
3998;DHT22;61314;53.444;9.902;2022-09-09T13:30:36;16.60;99.90
3998;DHT22;61314;53.444;9.902;2022-09-09T13:33:44;16.50;99.90
3998;DHT22;61314;53.444;9.902;2022-09-09T13:41:20;16.50;99.90
3998;DHT22;61314;53.444;9.902;2022-09-09T13:43:48;16.50;99.90
3998;DHT22;61314;53.444;9.902;2022-09-09T13:46:32;16.50;99.90
3998;DHT22;61314;53.444;9.902;2022-09-09T13:49:02;16.40;99.90
3998;DHT22;61314;53.444;9.902;2022-09-09T13:51:32;16.40;99.90
3998;DHT22;61314;53.444;9.902;2022-09-09T13:54:00;16.40;99.90
3998;DHT22;61314;53.444;9.902;2022-09-09T13:56:27;16.40;99.90
3998;DHT22;61314;53.444;9.902;2022-09-09T13:58:54;16.40;99.90
3998;DHT22;61314;53.444;9.902;2022-09-09T14:01:20;16.40;99.90
3998;DHT22;61314;53.444;9.902;2022-09-09T14:03:51;16.40;99.90
3998;DHT22;61314;53.444;9.902;2022-09-09T14:06:19;16.40;99.90
3998;DHT22;61314;53.444;9.902;2022-09-09T14:08:49;16.40;99.90
3998;DHT22;61314;53.444;9.902;2022-09-09T14:11:18;16.40;99.90
3998;DHT22;61314;53.444;9.902;2022-09-09T14:13:44;16.40;99.90
3998;DHT22;61314;53.444;9.902;2022-09-09T14:16:11;16.40;99.90
3998;DHT22;61314;53.444;9.902;2022-09-09T14:18:38;16.40;99.90
3998;DHT22;61314;53.444;9.902;2022-09-09T14:21:05;16.40;99.90
3998;DHT22;61314;53.444;9.902;2022-09-09T14:23:31;16.40;99.90
3998;DHT22;61314;53.444;9.902;2022-09-09T14:25:58;16.40;99.90
3998;DHT22;61314;53.444;9.902;2022-09-09T14:33:41;16.30;99.90
3998;DHT22;61314;53.444;9.902;2022-09-09T14:36:08;16.30;99.90
3998;DHT22;61314;53.444;9.902;2022-09-09T14:38:37;16.30;99.90
3998;DHT22;61314;53.444;9.902;2022-09-09T14:41:13;16.30;99.90
3998;DHT22;61314;53.444;9.902;2022-09-09T14:43:43;16.30;99.90
3998;DHT22;61314;53.444;9.902;2022-09-09T14:46:13;16.30;99.90
3998;DHT22;61314;53.444;9.902;2022-09-09T14:48:40;16.30;99.90
3998;DHT22;61314;53.444;9.902;2022-09-09T14:51:36;16.30;99.90
3998;DHT22;61314;53.444;9.902;2022-09-09T14:54:03;16.20;99.90
3998;DHT22;61314;53.444;9.902;2022-09-09T14:56:32;16.20;99.90
3998;DHT22;61314;53.444;9.902;2022-09-09T14:59:01;16.30;99.90
3998;DHT22;61314;53.444;9.902;2022-09-09T15:01:29;16.30;99.90
3998;DHT22;61314;53.444;9.902;2022-09-09T15:04:01;16.30;99.90
3998;DHT22;61314;53.444;9.902;2022-09-09T15:06:30;16.30;99.90
3998;DHT22;61314;53.444;9.902;2022-09-09T15:08:58;16.30;99.90
3998;DHT22;61314;53.444;9.902;2022-09-09T15:11:30;16.30;99.90
3998;DHT22;61314;53.444;9.902;2022-09-09T15:13:58;16.40;99.90
3998;DHT22;61314;53.444;9.902;2022-09-09T15:16:27;16.30;99.90
3998;DHT22;61314;53.444;9.902;2022-09-09T15:18:57;16.30;99.90
3998;DHT22;61314;53.444;9.902;2022-09-09T15:21:26;16.30;99.90
3998;DHT22;61314;53.444;9.902;2022-09-09T15:23:53;16.30;99.90
3998;DHT22;61314;53.444;9.902;2022-09-09T15:26:20;16.40;99.90
3998;DHT22;61314;53.444;9.902;2022-09-09T15:28:48;16.40;99.90
3998;DHT22;61314;53.444;9.902;2022-09-09T15:31:18;16.40;99.90
3998;DHT22;61314;53.444;9.902;2022-09-09T15:36:25;16.40;99.90
3998;DHT22;61314;53.444;9.902;2022-09-09T15:38:52;16.40;99.90
3998;DHT22;61314;53.444;9.902;2022-09-09T15:41:21;16.40;99.90
3998;DHT22;61314;53.444;9.902;2022-09-09T15:43:50;16.40;99.90
3998;DHT22;61314;53.444;9.902;2022-09-09T15:48:44;16.40;99.90
3998;DHT22;61314;53.444;9.902;2022-09-09T15:51:14;16.50;99.90
3998;DHT22;61314;53.444;9.902;2022-09-09T15:54:01;16.50;99.90
3998;DHT22;61314;53.444;9.902;2022-09-09T15:56:29;16.60;99.90
3998;DHT22;61314;53.444;9.902;2022-09-09T15:58:59;16.70;99.90
3998;DHT22;61314;53.444;9.902;2022-09-09T16:01:26;16.60;99.90
3998;DHT22;61314;53.444;9.902;2022-09-09T16:03:53;16.70;99.90
3998;DHT22;61314;53.444;9.902;2022-09-09T16:06:22;16.70;99.90
3998;DHT22;61314;53.444;9.902;2022-09-09T16:08:51;16.70;99.90
3998;DHT22;61314;53.444;9.902;2022-09-09T16:11:20;16.70;99.90
3998;DHT22;61314;53.444;9.902;2022-09-09T16:13:49;16.70;99.90
3998;DHT22;61314;53.444;9.902;2022-09-09T16:16:19;16.70;99.90
3998;DHT22;61314;53.444;9.902;2022-09-09T16:18:48;16.70;99.90
3998;DHT22;61314;53.444;9.902;2022-09-09T16:21:26;16.70;99.90
3998;DHT22;61314;53.444;9.902;2022-09-09T16:23:56;16.70;99.90
3998;DHT22;61314;53.444;9.902;2022-09-09T16:26:23;16.60;99.90
3998;DHT22;61314;53.444;9.902;2022-09-09T16:28:50;16.60;99.90
3998;DHT22;61314;53.444;9.902;2022-09-09T16:31:19;16.50;99.90
3998;DHT22;61314;53.444;9.902;2022-09-09T16:33:46;16.50;99.90
3998;DHT22;61314;53.444;9.902;2022-09-09T16:36:19;16.50;99.90
3998;DHT22;61314;53.444;9.902;2022-09-09T16:38:46;16.50;99.90
3998;DHT22;61314;53.444;9.902;2022-09-09T16:41:13;16.50;99.90
3998;DHT22;61314;53.444;9.902;2022-09-09T16:43:41;16.40;99.90
3998;DHT22;61314;53.444;9.902;2022-09-09T16:46:16;16.40;99.90
3998;DHT22;61314;53.444;9.902;2022-09-09T16:48:45;16.30;99.90
3998;DHT22;61314;53.444;9.902;2022-09-09T16:51:19;16.30;99.90
3998;DHT22;61314;53.444;9.902;2022-09-09T16:53:46;16.20;99.90
3998;DHT22;61314;53.444;9.902;2022-09-09T16:56:15;16.20;99.90
3998;DHT22;61314;53.444;9.902;2022-09-09T16:58:43;16.20;99.90
3998;DHT22;61314;53.444;9.902;2022-09-09T17:01:11;16.20;99.90
3998;DHT22;61314;53.444;9.902;2022-09-09T17:03:40;16.20;99.90
3998;DHT22;61314;53.444;9.902;2022-09-09T17:06:11;16.10;99.90
3998;DHT22;61314;53.444;9.902;2022-09-09T17:08:39;16.00;99.90
3998;DHT22;61314;53.444;9.902;2022-09-09T17:11:13;16.00;99.90
3998;DHT22;61314;53.444;9.902;2022-09-09T17:13:45;16.00;99.90
3998;DHT22;61314;53.444;9.902;2022-09-09T17:16:14;15.90;99.90
3998;DHT22;61314;53.444;9.902;2022-09-09T17:18:41;15.80;99.90
3998;DHT22;61314;53.444;9.902;2022-09-09T17:21:11;15.90;99.90
3998;DHT22;61314;53.444;9.902;2022-09-09T17:23:39;15.80;99.90
3998;DHT22;61314;53.444;9.902;2022-09-09T17:26:08;15.80;99.90
3998;DHT22;61314;53.444;9.902;2022-09-09T17:28:37;15.70;99.90
3998;DHT22;61314;53.444;9.902;2022-09-09T17:31:06;15.70;99.90
3998;DHT22;61314;53.444;9.902;2022-09-09T17:33:35;15.70;99.90
3998;DHT22;61314;53.444;9.902;2022-09-09T17:36:23;15.60;99.90
3998;DHT22;61314;53.444;9.902;2022-09-09T17:38:51;15.60;99.90
3998;DHT22;61314;53.444;9.902;2022-09-09T17:41:21;15.60;99.90
3998;DHT22;61314;53.444;9.902;2022-09-09T17:43:49;15.50;99.90
3998;DHT22;61314;53.444;9.902;2022-09-09T17:46:24;15.50;99.90
3998;DHT22;61314;53.444;9.902;2022-09-09T17:48:55;15.40;99.90
3998;DHT22;61314;53.444;9.902;2022-09-09T17:53:52;15.30;99.90
3998;DHT22;61314;53.444;9.902;2022-09-09T17:56:23;15.40;99.90
3998;DHT22;61314;53.444;9.902;2022-09-09T17:58:52;15.40;99.90
3998;DHT22;61314;53.444;9.902;2022-09-09T18:01:27;15.20;99.90
3998;DHT22;61314;53.444;9.902;2022-09-09T18:03:55;15.20;99.90
3998;DHT22;61314;53.444;9.902;2022-09-09T18:06:27;15.20;99.90
3998;DHT22;61314;53.444;9.902;2022-09-09T18:08:56;15.20;99.90
3998;DHT22;61314;53.444;9.902;2022-09-09T18:21:17;14.90;99.90
3998;DHT22;61314;53.444;9.902;2022-09-09T18:23:45;14.90;99.90
3998;DHT22;61314;53.444;9.902;2022-09-09T18:26:17;14.90;99.90
3998;DHT22;61314;53.444;9.902;2022-09-09T18:31:16;14.90;99.90
3998;DHT22;61314;53.444;9.902;2022-09-09T18:38:43;14.70;99.90
3998;DHT22;61314;53.444;9.902;2022-09-09T18:44:13;14.70;99.90
3998;DHT22;61314;53.444;9.902;2022-09-09T18:46:42;14.70;99.90
3998;DHT22;61314;53.444;9.902;2022-09-09T18:51:38;14.60;99.90
3998;DHT22;61314;53.444;9.902;2022-09-09T18:54:10;14.60;99.90
3998;DHT22;61314;53.444;9.902;2022-09-09T18:59:06;14.50;99.90
3998;DHT22;61314;53.444;9.902;2022-09-09T19:04:03;14.50;99.90
3998;DHT22;61314;53.444;9.902;2022-09-09T19:06:34;14.40;99.90
3998;DHT22;61314;53.444;9.902;2022-09-09T19:09:02;14.50;99.90
3998;DHT22;61314;53.444;9.902;2022-09-09T19:11:30;14.40;99.90
3998;DHT22;61314;53.444;9.902;2022-09-09T19:14:02;14.40;99.90
3998;DHT22;61314;53.444;9.902;2022-09-09T19:16:31;14.50;99.90
3998;DHT22;61314;53.444;9.902;2022-09-09T19:18:59;14.30;99.90
3998;DHT22;61314;53.444;9.902;2022-09-09T19:21:31;14.30;99.90
3998;DHT22;61314;53.444;9.902;2022-09-09T19:24:09;14.30;99.90
3998;DHT22;61314;53.444;9.902;2022-09-09T19:26:39;14.30;99.90
3998;DHT22;61314;53.444;9.902;2022-09-09T19:29:07;14.30;99.90
3998;DHT22;61314;53.444;9.902;2022-09-09T19:31:36;14.20;99.90
3998;DHT22;61314;53.444;9.902;2022-09-09T19:34:03;14.20;99.90
3998;DHT22;61314;53.444;9.902;2022-09-09T19:36:30;14.20;99.90
3998;DHT22;61314;53.444;9.902;2022-09-09T19:38:57;14.20;99.90
3998;DHT22;61314;53.444;9.902;2022-09-09T19:41:26;14.20;99.90
3998;DHT22;61314;53.444;9.902;2022-09-09T19:43:58;14.10;99.90
3998;DHT22;61314;53.444;9.902;2022-09-09T19:46:32;14.10;99.90
3998;DHT22;61314;53.444;9.902;2022-09-09T19:48:59;14.10;99.90
3998;DHT22;61314;53.444;9.902;2022-09-09T19:51:28;14.10;99.90
3998;DHT22;61314;53.444;9.902;2022-09-09T19:54:01;14.10;99.90
3998;DHT22;61314;53.444;9.902;2022-09-09T19:56:29;14.00;99.90
3998;DHT22;61314;53.444;9.902;2022-09-09T19:58:56;14.00;99.90
3998;DHT22;61314;53.444;9.902;2022-09-09T20:01:25;14.00;99.90
3998;DHT22;61314;53.444;9.902;2022-09-09T20:03:53;14.00;99.90
3998;DHT22;61314;53.444;9.902;2022-09-09T20:08:52;14.10;99.90
3998;DHT22;61314;53.444;9.902;2022-09-09T20:11:19;14.00;99.90
3998;DHT22;61314;53.444;9.902;2022-09-09T20:16:17;14.00;99.90
3998;DHT22;61314;53.444;9.902;2022-09-09T20:18:46;14.00;99.90
3998;DHT22;61314;53.444;9.902;2022-09-09T20:21:16;14.00;99.90
3998;DHT22;61314;53.444;9.902;2022-09-09T20:23:46;14.00;99.90
3998;DHT22;61314;53.444;9.902;2022-09-09T20:26:16;14.10;99.90
3998;DHT22;61314;53.444;9.902;2022-09-09T20:28:44;14.10;99.90
3998;DHT22;61314;53.444;9.902;2022-09-09T20:31:16;14.10;99.90
3998;DHT22;61314;53.444;9.902;2022-09-09T20:33:44;14.10;99.90
3998;DHT22;61314;53.444;9.902;2022-09-09T20:36:19;14.20;99.90
3998;DHT22;61314;53.444;9.902;2022-09-09T20:38:49;14.20;99.90
3998;DHT22;61314;53.444;9.902;2022-09-09T20:41:18;14.20;99.90
3998;DHT22;61314;53.444;9.902;2022-09-09T20:43:58;14.30;99.90
3998;DHT22;61314;53.444;9.902;2022-09-09T20:46:30;14.30;99.90
3998;DHT22;61314;53.444;9.902;2022-09-09T20:48:57;14.40;99.90
3998;DHT22;61314;53.444;9.902;2022-09-09T20:51:29;14.30;99.90
3998;DHT22;61314;53.444;9.902;2022-09-09T20:54:00;14.40;99.90
3998;DHT22;61314;53.444;9.902;2022-09-09T20:56:34;14.40;99.90
3998;DHT22;61314;53.444;9.902;2022-09-09T20:59:03;14.50;99.90
3998;DHT22;61314;53.444;9.902;2022-09-09T21:01:30;14.50;99.90
3998;DHT22;61314;53.444;9.902;2022-09-09T21:03:57;14.50;99.90
3998;DHT22;61314;53.444;9.902;2022-09-09T21:06:25;14.50;99.90
3998;DHT22;61314;53.444;9.902;2022-09-09T21:08:52;14.40;99.90
3998;DHT22;61314;53.444;9.902;2022-09-09T21:11:18;14.60;99.90
3998;DHT22;61314;53.444;9.902;2022-09-09T21:13:45;14.50;99.90
3998;DHT22;61314;53.444;9.902;2022-09-09T21:16:14;14.50;99.90
3998;DHT22;61314;53.444;9.902;2022-09-09T21:18:42;14.50;99.90
3998;DHT22;61314;53.444;9.902;2022-09-09T21:21:09;14.50;99.90
3998;DHT22;61314;53.444;9.902;2022-09-09T21:23:36;14.50;99.90
3998;DHT22;61314;53.444;9.902;2022-09-09T21:26:03;14.50;99.90
3998;DHT22;61314;53.444;9.902;2022-09-09T21:28:30;14.50;99.90
3998;DHT22;61314;53.444;9.902;2022-09-09T21:30:57;14.60;99.90
3998;DHT22;61314;53.444;9.902;2022-09-09T21:33:28;14.60;99.90
3998;DHT22;61314;53.444;9.902;2022-09-09T21:36:02;14.60;99.90
3998;DHT22;61314;53.444;9.902;2022-09-09T21:38:29;14.60;99.90
3998;DHT22;61314;53.444;9.902;2022-09-09T21:40:56;14.50;99.90
3998;DHT22;61314;53.444;9.902;2022-09-09T21:43:23;14.50;99.90
3998;DHT22;61314;53.444;9.902;2022-09-09T21:45:49;14.60;99.90
3998;DHT22;61314;53.444;9.902;2022-09-09T21:48:16;14.60;99.90
3998;DHT22;61314;53.444;9.902;2022-09-09T21:50:46;14.60;99.90
3998;DHT22;61314;53.444;9.902;2022-09-09T21:53:15;14.50;99.90
3998;DHT22;61314;53.444;9.902;2022-09-09T21:55:43;14.60;99.90
3998;DHT22;61314;53.444;9.902;2022-09-09T21:58:14;14.60;99.90
3998;DHT22;61314;53.444;9.902;2022-09-09T22:00:42;14.50;99.90
3998;DHT22;61314;53.444;9.902;2022-09-09T22:03:14;14.50;99.90
3998;DHT22;61314;53.444;9.902;2022-09-09T22:05:43;14.50;99.90
3998;DHT22;61314;53.444;9.902;2022-09-09T22:08:12;14.40;99.90
3998;DHT22;61314;53.444;9.902;2022-09-09T22:10:41;14.50;99.90
3998;DHT22;61314;53.444;9.902;2022-09-09T22:13:11;14.50;99.90
3998;DHT22;61314;53.444;9.902;2022-09-09T22:15:42;14.40;99.90
3998;DHT22;61314;53.444;9.902;2022-09-09T22:18:09;14.40;99.90
3998;DHT22;61314;53.444;9.902;2022-09-09T22:20:42;14.40;99.90
3998;DHT22;61314;53.444;9.902;2022-09-09T22:23:09;14.40;99.90
3998;DHT22;61314;53.444;9.902;2022-09-09T22:25:36;14.40;99.90
3998;DHT22;61314;53.444;9.902;2022-09-09T22:28:04;14.40;99.90
3998;DHT22;61314;53.444;9.902;2022-09-09T22:30:32;14.40;99.90
3998;DHT22;61314;53.444;9.902;2022-09-09T22:32:59;14.40;99.90
3998;DHT22;61314;53.444;9.902;2022-09-09T22:35:26;14.30;99.90
3998;DHT22;61314;53.444;9.902;2022-09-09T22:37:53;14.30;99.90
3998;DHT22;61314;53.444;9.902;2022-09-09T22:40:21;14.30;99.90
3998;DHT22;61314;53.444;9.902;2022-09-09T22:42:48;14.30;99.90
3998;DHT22;61314;53.444;9.902;2022-09-09T22:45:18;14.30;99.90
3998;DHT22;61314;53.444;9.902;2022-09-09T22:47:46;14.30;99.90
3998;DHT22;61314;53.444;9.902;2022-09-09T22:50:13;14.20;99.90
3998;DHT22;61314;53.444;9.902;2022-09-09T22:52:39;14.30;99.90
3998;DHT22;61314;53.444;9.902;2022-09-09T22:55:06;14.20;99.90
3998;DHT22;61314;53.444;9.902;2022-09-09T22:57:34;14.30;99.90
3998;DHT22;61314;53.444;9.902;2022-09-09T23:00:02;14.20;99.90
3998;DHT22;61314;53.444;9.902;2022-09-09T23:02:28;14.50;99.90
3998;DHT22;61314;53.444;9.902;2022-09-09T23:04:55;14.20;99.90
3998;DHT22;61314;53.444;9.902;2022-09-09T23:07:25;14.30;99.90
3998;DHT22;61314;53.444;9.902;2022-09-09T23:09:52;14.20;99.90
3998;DHT22;61314;53.444;9.902;2022-09-09T23:12:19;14.20;99.90
3998;DHT22;61314;53.444;9.902;2022-09-09T23:14:46;14.20;99.90
3998;DHT22;61314;53.444;9.902;2022-09-09T23:17:12;14.20;99.90
3998;DHT22;61314;53.444;9.902;2022-09-09T23:19:43;14.20;99.90
3998;DHT22;61314;53.444;9.902;2022-09-09T23:22:09;14.20;99.90
3998;DHT22;61314;53.444;9.902;2022-09-09T23:24:36;14.20;99.90
3998;DHT22;61314;53.444;9.902;2022-09-09T23:27:03;14.20;99.90
3998;DHT22;61314;53.444;9.902;2022-09-09T23:29:30;14.20;99.90
3998;DHT22;61314;53.444;9.902;2022-09-09T23:31:56;14.20;99.90
3998;DHT22;61314;53.444;9.902;2022-09-09T23:34:23;14.20;99.90
3998;DHT22;61314;53.444;9.902;2022-09-09T23:36:50;14.20;99.90
3998;DHT22;61314;53.444;9.902;2022-09-09T23:39:16;14.20;99.90
3998;DHT22;61314;53.444;9.902;2022-09-09T23:41:43;14.20;99.90
3998;DHT22;61314;53.444;9.902;2022-09-09T23:44:11;14.20;99.90
3998;DHT22;61314;53.444;9.902;2022-09-09T23:46:38;14.20;99.90
3998;DHT22;61314;53.444;9.902;2022-09-09T23:49:04;14.10;99.90
3998;DHT22;61314;53.444;9.902;2022-09-09T23:51:33;14.10;99.90
3998;DHT22;61314;53.444;9.902;2022-09-09T23:54:01;14.10;99.90
3998;DHT22;61314;53.444;9.902;2022-09-09T23:56:32;14.20;99.90
3998;DHT22;61314;53.444;9.902;2022-09-09T23:58:59;14.10;99.90
